Time;durP1;ratioP1;P1;durP2;ratioP2;P2;SDS_P1;SDS_P2;PMS_P1;PMS_P2;Temp;Humidity;BMP_temperature;BMP_pressure;BME280_temperature;BME280_humidity;BME280_pressure;Samples;Min_cycle;Max_cycle;Signal;HPM_P1;HPM_P2
2022/09/05 00:00:34;;;;;;;11.30;8.53;;;;;;;12.16;77.37;101088.63;2191529;80;21086;-70
2022/09/05 00:03:52;;;;;;;9.68;8.48;;;;;;;12.15;77.53;101095.45;2190635;80;21005;-70
2022/09/05 00:07:07;;;;;;;10.75;7.87;;;;;;;12.10;77.58;101094.57;2184928;80;21013;-79
2022/09/05 00:10:35;;;;;;;8.48;7.30;;;;;;;12.09;77.53;101095.57;2189580;80;21552;-73
2022/09/05 00:13:43;;;;;;;12.90;8.18;;;;;;;12.12;77.68;101096.59;2184758;80;21076;-72
2022/09/05 00:17:16;;;;;;;8.95;7.83;;;;;;;12.18;77.83;101097.80;2137630;80;20983;-70
2022/09/05 00:20:45;;;;;;;9.95;7.87;;;;;;;12.19;77.86;101097.66;2197663;80;21429;-71
2022/09/05 00:24:07;;;;;;;10.20;8.83;;;;;;;12.20;77.90;101098.50;2184439;80;21506;-71
2022/09/05 00:27:32;;;;;;;10.00;8.10;;;;;;;12.22;77.97;101101.81;2168399;80;21005;-71
2022/09/05 00:30:55;;;;;;;10.68;7.85;;;;;;;12.23;78.03;101100.84;2191015;79;20991;-71
2022/09/05 00:34:14;;;;;;;12.60;8.23;;;;;;;12.25;77.98;101101.53;2163511;80;20968;-72
2022/09/05 00:37:40;;;;;;;9.25;8.20;;;;;;;12.29;78.05;101100.23;2168703;80;21786;-72
2022/09/05 00:41:01;;;;;;;9.38;8.38;;;;;;;12.25;78.05;101096.22;2172832;80;21464;-70
2022/09/05 00:44:02;;;;;;;;;;;;;;;12.23;78.30;101096.86;2192816;80;21112;-71
2022/09/05 00:47:12;;;;;;;9.45;7.70;;;;;;;12.24;78.62;101096.69;2181249;80;20427;-70
2022/09/05 00:50:25;;;;;;;14.35;9.38;;;;;;;12.25;78.82;101102.37;2165413;79;21026;-74
2022/09/05 00:53:53;;;;;;;11.35;9.10;;;;;;;12.31;79.15;101105.73;2190455;79;21496;-70
2022/09/05 00:57:43;;;;;;;11.90;9.05;;;;;;;12.37;79.18;101101.63;2188453;80;21556;-74
2022/09/05 01:00:57;;;;;;;11.83;8.10;;;;;;;12.42;79.22;101103.33;2189897;80;20970;-72
2022/09/05 01:04:30;;;;;;;11.48;9.15;;;;;;;12.44;79.15;101103.99;2165047;80;21093;-70
2022/09/05 01:08:07;;;;;;;15.48;8.53;;;;;;;12.43;79.13;101095.67;2187992;79;21551;-70
2022/09/05 01:11:39;;;;;;;12.45;8.30;;;;;;;12.43;79.18;101106.33;2193797;79;20999;-73
2022/09/05 01:15:06;;;;;;;8.60;7.70;;;;;;;12.40;79.38;101101.81;2191641;80;21037;-71
2022/09/05 01:18:18;;;;;;;11.97;8.68;;;;;;;12.36;79.28;101106.62;2184081;80;20966;-70
2022/09/05 01:21:48;;;;;;;12.82;8.48;;;;;;;12.33;79.47;101104.23;2191404;80;21466;-71
2022/09/05 01:25:19;;;;;;;10.48;8.90;;;;;;;12.29;79.61;101097.56;2193726;80;21037;-70
2022/09/05 01:28:55;;;;;;;8.83;7.92;;;;;;;12.26;79.47;101098.70;2187990;79;20962;-70
2022/09/05 01:32:14;;;;;;;9.15;7.78;;;;;;;12.23;79.69;101097.69;2194437;80;20993;-72
2022/09/05 01:35:32;;;;;;;13.70;8.50;;;;;;;12.20;79.65;101094.50;2184454;80;21489;-70
2022/09/05 01:38:51;;;;;;;9.80;8.83;;;;;;;12.19;79.67;101093.67;2193333;80;21391;-70
2022/09/05 01:42:12;;;;;;;11.33;8.08;;;;;;;12.20;79.73;101099.33;2165908;80;20948;-71
2022/09/05 01:45:25;;;;;;;13.30;8.90;;;;;;;12.20;79.75;101097.16;2186820;80;21077;-70
2022/09/05 01:49:03;;;;;;;10.10;8.43;;;;;;;12.20;80.14;101098.00;2184509;79;21607;-70
2022/09/05 01:52:36;;;;;;;9.53;8.53;;;;;;;12.19;79.97;101097.66;2188173;80;20987;-70
2022/09/05 01:56:13;;;;;;;12.80;8.73;;;;;;;12.20;80.04;101101.16;2187873;80;21013;-70
2022/09/05 01:59:38;;;;;;;13.08;9.03;;;;;;;12.19;79.94;101100.33;2194695;80;21114;-71
2022/09/05 02:03:09;;;;;;;10.15;8.98;;;;;;;12.16;80.10;101099.27;2193234;79;21426;-74
2022/09/05 02:06:42;;;;;;;12.00;9.13;;;;;;;12.15;80.12;101096.78;2189797;80;21037;-70
2022/09/05 02:10:26;;;;;;;10.08;9.03;;;;;;;12.13;80.08;101106.23;2187466;79;21025;-70
2022/09/05 02:13:42;;;;;;;12.68;9.78;;;;;;;12.10;80.18;101112.69;2185751;79;21007;-74
2022/09/05 02:16:45;;;;;;;12.78;9.25;;;;;;;12.08;80.28;101108.04;2191345;79;21510;-70
2022/09/05 02:19:58;;;;;;;12.20;8.85;;;;;;;12.05;80.31;101115.00;2163520;80;21018;-73
2022/09/05 02:23:14;;;;;;;12.10;9.05;;;;;;;12.03;80.47;101114.80;2165690;80;21568;-70
2022/09/05 02:26:33;;;;;;;11.80;8.75;;;;;;;12.01;80.46;101117.60;2192202;80;20989;-70
2022/09/05 02:30:01;;;;;;;11.03;8.68;;;;;;;12.00;80.66;101120.43;2190512;79;20938;-79
2022/09/05 02:33:22;;;;;;;9.93;8.00;;;;;;;11.96;80.62;101116.38;2184350;80;20924;-70
2022/09/05 02:36:42;;;;;;;12.78;8.58;;;;;;;11.99;80.69;101114.75;2191779;80;20969;-70
2022/09/05 02:40:01;;;;;;;10.35;8.90;;;;;;;11.98;80.85;101121.06;2193681;80;21073;-70
2022/09/05 02:43:44;;;;;;;11.55;9.08;;;;;;;11.98;80.83;101116.58;2165409;80;21500;-70
2022/09/05 02:46:58;;;;;;;11.12;8.30;;;;;;;11.98;81.05;101116.58;2192806;79;20976;-71
2022/09/05 02:50:37;;;;;;;11.30;8.68;;;;;;;11.99;81.14;101128.87;2183750;80;20960;-70
2022/09/05 02:53:47;;;;;;;13.32;8.48;;;;;;;11.99;81.00;101123.56;2188748;80;21619;-73
2022/09/05 02:56:59;;;;;;;12.37;9.18;;;;;;;12.02;81.00;101118.44;2189724;80;21073;-70
2022/09/05 03:00:21;;;;;;;11.48;8.65;;;;;;;12.02;81.00;101120.63;2189149;79;21089;-72
2022/09/05 03:03:47;;;;;;;10.78;8.20;;;;;;;12.00;81.08;101110.63;2173295;80;21462;-70
2022/09/05 03:07:12;;;;;;;10.80;8.93;;;;;;;11.98;80.98;101108.59;2191654;80;21537;-72
2022/09/05 03:10:25;;;;;;;12.15;8.98;;;;;;;11.98;81.03;101115.75;2192698;80;20993;-77
2022/09/05 03:13:51;;;;;;;10.93;8.90;;;;;;;11.94;81.01;101112.56;2192403;80;20979;-70
2022/09/05 03:17:25;;;;;;;10.38;8.43;;;;;;;11.92;80.95;101112.37;2167912;80;20998;-70
2022/09/05 03:21:23;;;;;;;10.68;8.45;;;;;;;11.87;80.92;101116.80;2194254;80;21489;-71
2022/09/05 03:24:48;;;;;;;10.40;9.05;;;;;;;11.79;80.90;101113.52;2192160;80;21020;-70
2022/09/05 03:28:21;;;;;;;11.97;9.00;;;;;;;11.76;81.00;101115.66;2171871;80;21020;-70
2022/09/05 03:31:55;;;;;;;10.63;8.28;;;;;;;11.72;80.98;101123.60;2188023;80;21014;-79
2022/09/05 03:35:26;;;;;;;10.20;8.30;;;;;;;11.70;81.02;101124.23;2194291;79;21053;-70
2022/09/05 03:38:55;;;;;;;11.57;8.55;;;;;;;11.65;81.04;101132.15;2177482;80;21473;-70
2022/09/05 03:42:18;;;;;;;10.28;8.15;;;;;;;11.63;80.99;101131.48;2162448;80;21009;-71
2022/09/05 03:45:42;;;;;;;9.55;7.50;;;;;;;11.58;81.15;101129.76;2194265;80;21581;-72
2022/09/05 03:49:00;;;;;;;9.08;7.75;;;;;;;11.59;81.33;101139.89;2153224;80;21021;-69
2022/09/05 03:52:29;;;;;;;10.87;8.53;;;;;;;11.56;81.17;101142.85;2190331;80;20951;-70
2022/09/05 03:56:04;;;;;;;9.38;8.43;;;;;;;11.52;81.28;101144.98;2191461;80;21001;-70
2022/09/05 03:59:47;;;;;;;11.08;8.20;;;;;;;11.49;81.24;101146.61;2124528;82;21038;-72
2022/09/05 04:03:02;;;;;;;10.50;8.33;;;;;;;11.47;81.25;101142.41;2190620;79;21067;-70
2022/09/05 04:06:27;;;;;;;8.95;8.05;;;;;;;11.43;81.30;101144.51;2191483;80;21586;-71
2022/09/05 04:09:44;;;;;;;12.70;8.05;;;;;;;11.41;81.41;101147.83;2186719;80;21010;-70
2022/09/05 04:13:07;;;;;;;9.05;8.15;;;;;;;11.37;81.38;101149.09;2188015;80;21026;-70
2022/09/05 04:16:37;;;;;;;13.85;8.18;;;;;;;11.37;81.37;101151.74;2122393;80;21042;-70
2022/09/05 04:19:46;;;;;;;8.63;7.83;;;;;;;11.35;81.34;101162.53;2171016;79;21515;-73
2022/09/05 04:23:17;;;;;;;13.15;7.90;;;;;;;11.31;81.36;101162.47;2190406;80;21034;-71
2022/09/05 04:26:38;;;;;;;;;;;;;;;11.29;81.57;101159.14;2194154;80;21084;-70
2022/09/05 04:30:02;;;;;;;9.98;8.13;;;;;;;11.27;81.78;101168.23;2185225;80;20171;-70
2022/09/05 04:33:23;;;;;;;9.85;7.92;;;;;;;11.26;81.69;101172.69;2135054;80;20995;-69
2022/09/05 04:36:33;;;;;;;11.97;8.65;;;;;;;11.24;81.76;101177.33;2188472;80;21524;-72
2022/09/05 04:39:35;;;;;;;;;;;;;;;11.24;81.76;101180.48;2197274;80;21038;-68
2022/09/05 04:42:38;;;;;;;11.20;7.92;;;;;;;11.25;81.75;101177.67;2189470;80;20169;-71
2022/09/05 04:45:44;;;;;;;13.80;9.18;;;;;;;11.27;81.71;101181.52;2195739;80;21014;-69
2022/09/05 04:49:06;;;;;;;12.07;9.18;;;;;;;11.31;81.69;101185.55;2194162;80;21133;-70
2022/09/05 04:52:25;;;;;;;13.70;9.18;;;;;;;11.38;81.75;101180.84;2197988;80;21018;-73
2022/09/05 04:55:46;;;;;;;12.80;8.93;;;;;;;11.54;81.76;101185.52;2191628;80;21562;-70
2022/09/05 04:59:04;;;;;;;12.58;9.38;;;;;;;11.73;81.66;101193.06;2185066;79;21026;-70
2022/09/05 05:02:29;;;;;;;11.18;9.03;;;;;;;11.91;81.45;101197.11;2179355;80;21034;-70
2022/09/05 05:05:53;;;;;;;13.88;8.23;;;;;;;12.07;81.24;101198.12;2182865;80;20993;-71
2022/09/05 05:09:24;;;;;;;10.72;8.60;;;;;;;12.28;81.05;101198.36;2190962;80;20990;-78
2022/09/05 05:12:58;;;;;;;9.50;7.28;;;;;;;12.58;80.78;101206.42;2183442;80;21046;-76
2022/09/05 05:16:18;;;;;;;9.08;7.67;;;;;;;13.06;80.75;101208.30;2194109;80;21022;-69
2022/09/05 05:19:31;;;;;;;12.18;7.92;;;;;;;13.55;80.01;101208.62;2196906;80;21077;-68
2022/09/05 05:22:32;;;;;;;12.30;9.98;;;;;;;13.93;79.27;101203.75;2199025;80;21026;-68
2022/09/05 05:25:50;;;;;;;14.45;11.30;;;;;;;14.29;78.31;101205.67;2194029;80;21086;-70
2022/09/05 05:29:17;;;;;;;12.00;8.78;;;;;;;14.63;78.50;101205.56;2194552;79;21002;-72
2022/09/05 05:32:35;;;;;;;14.78;8.73;;;;;;;15.06;77.88;101208.86;2187531;80;21054;-87
2022/09/05 05:35:38;;;;;;;11.85;10.63;;;;;;;15.44;77.10;101203.78;2176094;80;21997;-73
2022/09/05 05:38:52;;;;;;;19.25;15.20;;;;;;;15.79;76.47;101208.34;2160117;80;21049;-74
2022/09/05 05:41:58;;;;;;;18.30;12.25;;;;;;;15.97;75.60;101212.13;2199845;80;21042;-81
2022/09/05 05:44:59;;;;;;;8.85;7.30;;;;;;;16.24;74.89;101214.79;2191965;79;21061;-72
2022/09/05 05:48:20;;;;;;;8.90;6.62;;;;;;;16.53;74.40;101216.27;2200437;79;21102;-72
2022/09/05 05:51:57;;;;;;;7.92;5.47;;;;;;;16.72;73.50;101208.74;2191392;79;21009;-72
2022/09/05 05:55:40;;;;;;;8.90;6.50;;;;;;;16.84;72.51;101210.51;2196021;79;21061;-72
2022/09/05 05:59:02;;;;;;;11.25;7.53;;;;;;;16.94;71.94;101207.91;2192704;80;21099;-76
2022/09/05 06:02:42;;;;;;;8.88;6.90;;;;;;;17.02;71.31;101209.68;2154097;80;21008;-70
2022/09/05 06:06:17;;;;;;;9.93;6.53;;;;;;;17.16;70.47;101213.41;2186467;80;21506;-72
2022/09/05 06:10:05;;;;;;;15.58;7.42;;;;;;;17.27;70.38;101216.14;2195299;80;21014;-71
2022/09/05 06:13:27;;;;;;;7.17;5.87;;;;;;;17.46;69.10;101221.80;2152164;81;21623;-71
2022/09/05 06:17:18;;;;;;;8.58;5.60;;;;;;;17.52;68.40;101224.24;2193235;80;21002;-75
2022/09/05 06:21:13;;;;;;;8.28;6.25;;;;;;;17.54;67.10;101221.36;2197773;80;21039;-71
2022/09/05 06:24:45;;;;;;;6.55;5.25;;;;;;;17.41;67.21;101225.53;2195939;80;20974;-73
2022/09/05 06:28:18;;;;;;;8.43;5.55;;;;;;;17.56;67.19;101217.98;2196492;80;20986;-71
2022/09/05 06:31:45;;;;;;;9.98;6.15;;;;;;;17.67;67.18;101228.25;2194868;80;20994;-72
2022/09/05 06:35:08;;;;;;;8.05;4.80;;;;;;;17.57;66.67;101222.33;2190790;80;20983;-71
2022/09/05 06:38:27;;;;;;;7.20;4.97;;;;;;;17.65;66.11;101228.94;2191471;79;21029;-71
2022/09/05 06:41:55;;;;;;;8.70;6.33;;;;;;;17.82;65.51;101230.95;2182506;80;20978;-72
2022/09/05 06:45:35;;;;;;;8.73;4.85;;;;;;;17.86;65.28;101235.77;2187337;79;21466;-72
2022/09/05 06:48:51;;;;;;;8.48;6.10;;;;;;;17.87;65.10;101237.94;2191455;80;20966;-72
2022/09/05 06:52:08;;;;;;;8.08;5.87;;;;;;;18.01;65.28;101230.88;2193137;80;21046;-74
2022/09/05 06:55:55;;;;;;;10.03;6.67;;;;;;;18.18;65.10;101235.00;2193674;80;20971;-72
2022/09/05 06:59:28;;;;;;;10.53;5.65;;;;;;;18.14;64.25;101233.72;2095967;80;21098;-73
2022/09/05 07:03:02;;;;;;;9.13;5.65;;;;;;;18.33;64.26;101243.03;2195210;80;21027;-72
2022/09/05 07:06:31;;;;;;;9.43;6.10;;;;;;;18.48;64.06;101244.31;2197645;80;21592;-72
2022/09/05 07:09:42;;;;;;;7.10;5.40;;;;;;;18.62;63.22;101240.73;2183306;80;21018;-72
2022/09/05 07:12:55;;;;;;;6.45;4.97;;;;;;;18.75;62.97;101240.89;2156415;79;21022;-72
2022/09/05 07:16:21;;;;;;;9.05;5.50;;;;;;;19.02;63.80;101244.61;2193304;80;21002;-72
2022/09/05 07:19:32;;;;;;;10.43;5.12;;;;;;;19.32;62.49;101247.64;2161989;80;20990;-72
2022/09/05 07:22:40;;;;;;;8.60;5.35;;;;;;;19.45;62.32;101247.70;2190744;80;21577;-72
2022/09/05 07:25:47;;;;;;;11.53;5.47;;;;;;;19.57;60.91;101240.75;2187543;80;20990;-72
2022/09/05 07:28:53;;;;;;;7.85;4.95;;;;;;;19.61;60.79;101255.46;2193985;80;21002;-72
2022/09/05 07:31:58;;;;;;;8.93;4.95;;;;;;;19.52;60.36;101251.28;2186681;80;21064;-77
2022/09/05 07:35:02;;;;;;;8.40;5.22;;;;;;;19.82;61.29;101253.73;2165695;80;21033;-73
2022/09/05 07:38:24;;;;;;;9.75;4.95;;;;;;;20.09;59.13;101251.46;2197530;80;21011;-72
2022/09/05 07:41:32;;;;;;;6.35;5.12;;;;;;;20.20;59.60;101245.19;2184891;80;20998;-72
2022/09/05 07:44:42;;;;;;;5.75;4.67;;;;;;;20.47;59.47;101245.56;2191400;79;21053;-72
2022/09/05 07:48:04;;;;;;;6.08;4.42;;;;;;;20.70;59.02;101252.48;2185698;80;20987;-72
2022/09/05 07:51:13;;;;;;;7.62;4.97;;;;;;;20.68;57.06;101254.54;2183509;80;21016;-74
2022/09/05 07:54:23;;;;;;;6.87;4.30;;;;;;;20.45;57.21;101259.77;2192717;80;21004;-72
2022/09/05 07:57:31;;;;;;;8.25;4.65;;;;;;;20.39;56.46;101252.50;2193573;80;21003;-72
2022/09/05 08:00:32;;;;;;;9.95;5.10;;;;;;;20.48;57.10;101256.66;2192297;80;21005;-75
2022/09/05 08:03:34;;;;;;;7.80;4.67;;;;;;;20.64;57.02;101257.31;2189810;80;21088;-72
2022/09/05 08:06:35;;;;;;;8.65;4.92;;;;;;;21.01;55.97;101269.39;2189546;80;21581;-74
2022/09/05 08:09:45;;;;;;;6.30;4.75;;;;;;;21.01;55.29;101258.08;2190616;80;21041;-72
2022/09/05 08:13:09;;;;;;;8.00;4.78;;;;;;;21.20;55.94;101266.36;2169641;80;20980;-72
2022/09/05 08:16:14;;;;;;;7.40;4.37;;;;;;;21.21;55.84;101257.24;2190092;80;20987;-72
2022/09/05 08:19:56;;;;;;;6.97;4.62;;;;;;;21.33;54.56;101259.59;2186981;80;20993;-72
2022/09/05 08:23:08;;;;;;;5.87;4.10;;;;;;;21.38;55.63;101263.06;2190434;80;21041;-73
2022/09/05 08:26:29;;;;;;;7.35;4.33;;;;;;;21.64;53.63;101263.52;2187625;80;20995;-72
2022/09/05 08:29:38;;;;;;;6.60;3.92;;;;;;;21.54;54.00;101252.31;2158208;80;21013;-72
2022/09/05 08:32:51;;;;;;;4.53;3.75;;;;;;;21.57;54.35;101254.09;2198438;79;21017;-74
2022/09/05 08:36:40;;;;;;;7.03;4.47;;;;;;;21.59;53.70;101249.81;2179657;80;20954;-74
2022/09/05 08:39:42;;;;;;;5.30;3.98;;;;;;;21.62;53.26;101249.39;2097289;80;20963;-72
2022/09/05 08:43:01;;;;;;;4.90;3.87;;;;;;;21.83;52.82;101241.02;2190590;80;21457;-72
2022/09/05 08:46:32;;;;;;;5.62;4.17;;;;;;;21.85;53.38;101242.98;2188744;79;22455;-73
2022/09/05 08:49:58;;;;;;;5.92;4.42;;;;;;;22.09;53.31;101243.29;2182801;80;21002;-72
2022/09/05 08:53:35;;;;;;;5.78;4.22;;;;;;;22.03;51.35;101232.81;2192515;80;21014;-75
2022/09/05 08:57:01;;;;;;;5.95;4.50;;;;;;;22.02;51.06;101230.31;2193962;80;20975;-72
2022/09/05 09:00:07;;;;;;;6.12;4.22;;;;;;;21.91;51.15;101227.80;2163112;79;21525;-71
2022/09/05 09:03:16;;;;;;;6.90;3.85;;;;;;;21.92;50.11;101222.16;2194578;80;20974;-73
2022/09/05 09:06:37;;;;;;;9.23;4.53;;;;;;;21.85;50.99;101218.67;2166375;80;21038;-71
2022/09/05 09:10:03;;;;;;;5.70;3.90;;;;;;;21.96;50.00;101223.08;2171999;79;21073;-72
2022/09/05 09:13:36;;;;;;;6.15;3.60;;;;;;;21.92;49.43;101217.28;2190278;80;21155;-71
2022/09/05 09:16:42;;;;;;;6.42;3.65;;;;;;;21.96;49.89;101206.86;2147274;81;21010;-72
2022/09/05 09:20:14;;;;;;;6.50;3.85;;;;;;;21.99;49.73;101203.73;2110606;83;21047;-72
2022/09/05 09:23:40;;;;;;;10.38;3.87;;;;;;;22.09;50.74;101194.11;2121806;82;21607;-72
2022/09/05 09:27:00;;;;;;;5.90;3.85;;;;;;;22.38;50.20;101202.20;2155361;82;21021;-72
2022/09/05 09:30:04;;;;;;;;;;;;;;;22.33;49.58;101192.55;2152046;82;20974;-73
2022/09/05 09:33:08;;;;;;;5.42;3.92;;;;;;;22.45;49.36;101183.20;2156765;82;20181;-72
2022/09/05 09:36:57;;;;;;;7.35;3.83;;;;;;;22.44;47.54;101203.20;2149971;82;20943;-72
2022/09/05 09:40:25;;;;;;;6.37;3.65;;;;;;;22.33;48.39;101196.61;2123473;82;21578;-71
2022/09/05 09:43:37;;;;;;;4.40;3.27;;;;;;;22.30;48.36;101186.73;2135574;82;21066;-72
2022/09/05 09:46:49;;;;;;;5.55;3.60;;;;;;;22.31;47.67;101192.46;2132578;82;21445;-72
2022/09/05 09:49:55;;;;;;;6.15;3.83;;;;;;;22.05;47.50;101188.85;2133762;82;21557;-71
2022/09/05 09:53:26;;;;;;;6.35;3.80;;;;;;;21.70;47.96;101193.79;2134168;81;21069;-72
2022/09/05 09:57:09;;;;;;;3.92;3.02;;;;;;;21.73;48.11;101191.19;2130375;82;21019;-72
2022/09/05 10:00:22;;;;;;;3.77;3.10;;;;;;;21.74;47.60;101205.84;2136092;82;21597;-74
2022/09/05 10:03:41;;;;;;;5.37;3.30;;;;;;;21.89;47.60;101192.05;2137752;81;21003;-71
2022/09/05 10:07:27;;;;;;;3.85;3.40;;;;;;;22.00;46.99;101187.84;2134633;82;21050;-72
2022/09/05 10:10:55;;;;;;;4.33;3.08;;;;;;;22.10;47.78;101171.97;2131010;82;21055;-71
2022/09/05 10:14:44;;;;;;;4.67;3.02;;;;;;;22.38;46.89;101190.03;2130943;81;21011;-72
2022/09/05 10:17:54;;;;;;;4.25;3.47;;;;;;;22.36;46.49;101184.00;2134401;83;21054;-72
2022/09/05 10:21:03;;;;;;;5.30;3.65;;;;;;;22.46;46.23;101178.09;2134074;82;20977;-71
2022/09/05 10:24:32;;;;;;;4.33;3.13;;;;;;;22.49;46.44;101182.23;2135235;83;21490;-71
2022/09/05 10:28:08;;;;;;;5.62;3.02;;;;;;;22.57;46.04;101171.15;2137568;82;20996;-73
2022/09/05 10:31:20;;;;;;;4.37;3.40;;;;;;;22.77;46.80;101174.51;2137294;81;21035;-74
2022/09/05 10:34:28;;;;;;;3.33;2.80;;;;;;;22.92;45.36;101177.39;2131004;81;21515;-79
2022/09/05 10:37:40;;;;;;;4.03;2.90;;;;;;;22.88;45.22;101161.31;2132355;81;21114;-74
2022/09/05 10:40:48;;;;;;;3.90;3.05;;;;;;;22.75;44.94;101163.10;2116485;81;21031;-72
2022/09/05 10:44:01;;;;;;;4.72;3.00;;;;;;;22.51;45.58;101152.58;2137905;81;21486;-75
2022/09/05 10:47:29;;;;;;;5.37;3.15;;;;;;;22.72;45.71;101158.63;2136452;81;21075;-71
2022/09/05 10:50:46;;;;;;;3.72;2.72;;;;;;;22.86;46.03;101154.75;2119125;82;21620;-75
2022/09/05 10:54:11;;;;;;;3.20;2.65;;;;;;;23.04;46.24;101149.41;2190907;80;21047;-76
2022/09/05 10:57:57;;;;;;;5.53;2.80;;;;;;;23.41;45.91;101150.77;2181672;80;21026;-72
2022/09/05 11:01:34;;;;;;;4.55;2.90;;;;;;;23.46;45.01;101147.39;2188528;80;21021;-73
2022/09/05 11:04:49;;;;;;;4.78;2.85;;;;;;;23.70;43.95;101148.31;2192871;80;21463;-73
2022/09/05 11:08:02;;;;;;;4.45;2.80;;;;;;;23.61;43.57;101135.62;2187352;80;21070;-74
2022/09/05 11:11:21;;;;;;;3.17;2.95;;;;;;;23.71;43.60;101133.23;2185093;79;21116;-73
2022/09/05 11:14:34;;;;;;;5.25;3.00;;;;;;;23.58;43.47;101136.08;2191169;80;21130;-72
2022/09/05 11:17:50;;;;;;;2.52;2.33;;;;;;;23.53;43.28;101131.05;2188199;80;20999;-72
2022/09/05 11:21:32;;;;;;;4.45;2.72;;;;;;;23.43;42.99;101132.42;2185146;80;21080;-73
2022/09/05 11:24:57;;;;;;;4.35;2.80;;;;;;;23.26;43.65;101126.79;2186029;80;21015;-78
2022/09/05 11:28:15;;;;;;;5.00;2.77;;;;;;;23.36;43.80;101130.84;2186469;80;21472;-74
2022/09/05 11:31:20;;;;;;;3.47;3.12;;;;;;;23.30;43.44;101123.09;2186872;80;21119;-73
2022/09/05 11:34:52;;;;;;;2.47;2.27;;;;;;;23.30;43.21;101124.98;2183735;79;21057;-72
2022/09/05 11:38:13;;;;;;;3.42;2.55;;;;;;;23.29;42.31;101124.69;2185138;80;21460;-72
2022/09/05 11:41:34;;;;;;;5.10;2.55;;;;;;;23.09;42.44;101117.63;2191325;80;21015;-72
2022/09/05 11:45:13;;;;;;;6.70;2.90;;;;;;;23.01;43.06;101116.56;2184040;80;21466;-72
2022/09/05 11:49:07;;;;;;;3.27;2.52;;;;;;;22.62;42.86;101121.28;2187448;80;21502;-73
2022/09/05 11:52:46;;;;;;;3.25;2.92;;;;;;;22.69;42.39;101117.16;2185950;80;21035;-74
2022/09/05 11:56:27;;;;;;;4.15;2.58;;;;;;;22.16;42.32;101113.83;2189534;80;20959;-72
2022/09/05 11:59:52;;;;;;;4.80;2.77;;;;;;;21.79;42.96;101114.16;2188688;79;21552;-72
2022/09/05 12:03:38;;;;;;;6.53;2.65;;;;;;;21.85;43.51;101107.06;2189609;79;21025;-73
2022/09/05 12:07:01;;;;;;;4.05;2.55;;;;;;;22.09;43.27;101118.45;2162873;79;21531;-72
2022/09/05 12:10:25;;;;;;;2.98;2.67;;;;;;;22.30;43.20;101109.19;2188526;80;20981;-73
2022/09/05 12:13:58;;;;;;;3.05;2.47;;;;;;;22.44;44.49;101108.55;2161164;80;20955;-72
2022/09/05 12:17:31;;;;;;;3.60;2.42;;;;;;;22.42;43.17;101116.58;2184261;79;21060;-72
2022/09/05 12:21:18;;;;;;;4.12;2.80;;;;;;;22.42;43.06;101109.82;2182690;79;21026;-72
2022/09/05 12:25:00;;;;;;;6.28;2.67;;;;;;;22.42;43.02;101106.59;2188332;80;21026;-72
2022/09/05 12:28:10;;;;;;;3.52;2.47;;;;;;;22.49;42.59;101099.23;2188078;80;21013;-71
2022/09/05 12:31:22;;;;;;;3.93;2.77;;;;;;;22.52;42.93;101104.72;2187473;80;20973;-73
2022/09/05 12:34:50;;;;;;;4.30;2.50;;;;;;;22.54;42.01;101111.56;2189715;80;21046;-72
2022/09/05 12:37:56;;;;;;;3.70;2.50;;;;;;;22.53;41.36;101109.10;2180044;79;21028;-76
2022/09/05 12:41:06;;;;;;;3.85;2.40;;;;;;;22.50;42.56;101098.73;2182604;80;21457;-72
2022/09/05 12:44:24;;;;;;;3.67;2.33;;;;;;;22.69;42.18;101096.34;2185308;79;23063;-73
2022/09/05 12:47:28;;;;;;;3.72;2.47;;;;;;;22.86;42.68;101095.76;2187541;80;21006;-72
2022/09/05 12:50:53;;;;;;;2.83;2.55;;;;;;;22.62;41.77;101091.53;2186402;80;21113;-72
2022/09/05 12:54:00;;;;;;;4.42;2.55;;;;;;;22.71;42.61;101087.48;2183497;79;22161;-72
2022/09/05 12:57:26;;;;;;;3.95;2.98;;;;;;;22.74;41.87;101082.16;2183984;79;21534;-74
2022/09/05 13:00:31;;;;;;;4.60;2.50;;;;;;;22.67;42.06;101091.70;2187170;79;20979;-71
2022/09/05 13:03:36;;;;;;;5.87;2.55;;;;;;;22.70;41.26;101082.31;2188245;79;21026;-72
2022/09/05 13:06:44;;;;;;;2.92;2.22;;;;;;;22.57;41.44;101080.02;2181887;79;20990;-71
2022/09/05 13:09:58;;;;;;;3.83;2.58;;;;;;;22.38;41.15;101085.08;2186864;79;21074;-72
2022/09/05 13:13:06;;;;;;;5.95;2.65;;;;;;;22.23;40.54;101084.06;2185939;79;20988;-71
2022/09/05 13:16:09;;;;;;;7.10;2.30;;;;;;;21.94;41.07;101074.17;2186334;80;20999;-73
2022/09/05 13:19:16;;;;;;;3.42;2.55;;;;;;;21.78;41.74;101071.99;2160708;80;20985;-72
2022/09/05 13:22:21;;;;;;;4.87;2.40;;;;;;;21.66;41.71;101073.74;2180237;79;20986;-72
2022/09/05 13:25:26;;;;;;;4.50;2.40;;;;;;;21.72;42.33;101075.57;2187299;79;21512;-72
2022/09/05 13:28:50;;;;;;;5.28;2.40;;;;;;;21.82;41.82;101072.38;2183090;80;21389;-71
2022/09/05 13:32:02;;;;;;;4.03;2.95;;;;;;;21.79;41.77;101074.98;2191238;80;20998;-72
2022/09/05 13:35:28;;;;;;;3.37;2.58;;;;;;;21.71;42.01;101068.52;2185905;80;21013;-73
2022/09/05 13:38:44;;;;;;;4.00;2.40;;;;;;;21.76;42.16;101070.02;2189986;80;21555;-72
2022/09/05 13:41:53;;;;;;;3.45;2.85;;;;;;;21.88;42.21;101061.55;2180866;79;21045;-72
2022/09/05 13:44:59;;;;;;;3.17;2.65;;;;;;;22.07;43.00;101065.13;2185660;79;20980;-71
2022/09/05 13:48:30;;;;;;;3.00;2.65;;;;;;;22.30;41.68;101067.28;2189421;80;20998;-72
2022/09/05 13:51:46;;;;;;;4.15;2.55;;;;;;;22.34;41.67;101058.20;2177793;79;21078;-72
2022/09/05 13:55:16;;;;;;;3.05;2.47;;;;;;;22.46;42.02;101066.41;2190895;80;21042;-72
2022/09/05 13:58:41;;;;;;;6.00;2.90;;;;;;;22.45;41.44;101048.54;2180595;80;20995;-75
2022/09/05 14:02:06;;;;;;;6.28;2.60;;;;;;;22.43;41.58;101046.58;2133254;80;21460;-74
2022/09/05 14:05:30;;;;;;;2.87;2.62;;;;;;;22.47;41.37;101043.71;2166403;79;21014;-72
2022/09/05 14:09:03;;;;;;;3.30;2.72;;;;;;;22.34;41.21;101048.73;2179709;80;21525;-72
2022/09/05 14:12:37;;;;;;;4.00;2.72;;;;;;;22.23;41.56;101040.00;2183760;80;21559;-72
2022/09/05 14:15:58;;;;;;;3.02;2.45;;;;;;;22.24;42.26;101042.46;2186813;79;20963;-72
2022/09/05 14:22:41;;;;;;;3.30;2.37;;;;;;;22.14;41.54;101034.02;2185542;79;21145;-71
2022/09/05 14:25:50;;;;;;;4.72;2.55;;;;;;;22.12;41.78;101035.57;2191752;79;21690;-72
2022/09/05 14:29:12;;;;;;;3.10;2.50;;;;;;;21.94;41.50;101030.95;2183707;79;21639;-72
2022/09/05 14:32:22;;;;;;;4.62;2.12;;;;;;;21.69;41.53;101028.22;2185365;80;21062;-71
2022/09/05 14:35:35;;;;;;;3.15;2.47;;;;;;;21.57;41.42;101023.71;2182671;79;21022;-72
2022/09/05 14:38:54;;;;;;;2.40;2.20;;;;;;;21.63;42.44;101026.39;2186880;80;20939;-72
2022/09/05 14:42:45;;;;;;;4.12;2.10;;;;;;;21.67;42.03;101022.72;2188499;80;21456;-73
2022/09/05 14:46:04;;;;;;;2.30;2.08;;;;;;;21.67;42.14;101024.08;2182876;79;21105;-72
2022/09/05 14:49:29;;;;;;;2.35;2.12;;;;;;;21.55;42.22;101020.42;2190737;80;21085;-73
2022/09/05 14:52:33;;;;;;;4.75;2.72;;;;;;;21.42;42.06;101026.19;2189611;79;21057;-72
2022/09/05 14:55:34;;;;;;;2.77;2.33;;;;;;;21.32;42.08;101013.67;2183638;80;21528;-74
2022/09/05 14:58:36;;;;;;;4.25;2.45;;;;;;;21.37;41.78;101019.28;2186103;79;21117;-71
2022/09/05 15:01:57;;;;;;;3.83;2.50;;;;;;;21.45;42.08;101012.78;2187963;80;21050;-72
2022/09/05 15:05:08;;;;;;;4.58;2.45;;;;;;;21.53;41.97;101007.66;2186678;80;21462;-74
2022/09/05 15:08:14;;;;;;;3.40;2.35;;;;;;;21.62;41.68;101009.04;2180025;79;21014;-74
2022/09/05 15:11:22;;;;;;;2.45;2.25;;;;;;;21.63;42.12;101001.27;2183934;80;20998;-74
2022/09/05 15:14:26;;;;;;;2.75;2.35;;;;;;;21.67;41.97;101005.17;2189586;79;21034;-72
2022/09/05 15:17:29;;;;;;;3.75;2.50;;;;;;;21.63;41.78;101001.27;2188457;80;20987;-71
2022/09/05 15:20:43;;;;;;;3.80;2.65;;;;;;;21.57;41.50;101000.76;2180448;80;21654;-72
2022/09/05 15:23:58;;;;;;;2.72;2.47;;;;;;;21.49;41.43;100991.89;2189625;79;21007;-71
2022/09/05 15:27:01;;;;;;;5.47;2.47;;;;;;;21.41;41.87;100987.28;2188473;80;21133;-74
2022/09/05 15:30:05;;;;;;;3.10;2.30;;;;;;;21.38;41.92;100997.98;2188840;79;21594;-73
2022/09/05 15:33:17;;;;;;;2.77;2.47;;;;;;;21.37;41.79;100990.94;2182652;80;21041;-72
2022/09/05 15:36:36;;;;;;;3.83;2.35;;;;;;;21.36;42.37;100996.52;2189859;80;21629;-71